Map

Track Data

SID SEASON NUMBER BASIN SUBBASIN NAME ISO_TIME NATURE LAT LON WMO_WIND WMO_PRES WMO_AGENCY TRACK_TYPE DIST2LAND LANDFALL IFLAG USA_AGENCY USA_ATCF_ID USA_LAT USA_LON USA_RECORD USA_STATUS USA_WIND USA_PRES USA_SSHS USA_R34_NE USA_R34_SE USA_R34_SW USA_R34_NW USA_R50_NE USA_R50_SE USA_R50_SW USA_R50_NW USA_R64_NE USA_R64_SE USA_R64_SW USA_R64_NW USA_POCI USA_ROCI USA_RMW USA_EYE TOKYO_LAT TOKYO_LON TOKYO_GRADE TOKYO_WIND TOKYO_PRES TOKYO_R50_DIR TOKYO_R50_LONG TOKYO_R50_SHORT TOKYO_R30_DIR TOKYO_R30_LONG TOKYO_R30_SHORT TOKYO_LAND CMA_LAT CMA_LON CMA_CAT CMA_WIND CMA_PRES HKO_LAT HKO_LON HKO_CAT HKO_WIND HKO_PRES NEWDELHI_LAT NEWDELHI_LON NEWDELHI_GRADE NEWDELHI_WIND NEWDELHI_PRES NEWDELHI_CI NEWDELHI_DP NEWDELHI_POCI REUNION_LAT REUNION_LON REUNION_TYPE REUNION_WIND REUNION_PRES REUNION_TNUM REUNION_CI REUNION_RMW REUNION_R34_NE REUNION_R34_SE REUNION_R34_SW REUNION_R34_NW REUNION_R50_NE REUNION_R50_SE REUNION_R50_SW REUNION_R50_NW REUNION_R64_NE REUNION_R64_SE REUNION_R64_SW REUNION_R64_NW BOM_LAT BOM_LON BOM_TYPE BOM_WIND BOM_PRES BOM_TNUM BOM_CI BOM_RMW BOM_R34_NE BOM_R34_SE BOM_R34_SW BOM_R34_NW BOM_R50_NE BOM_R50_SE BOM_R50_SW BOM_R50_NW BOM_R64_NE BOM_R64_SE BOM_R64_SW BOM_R64_NW BOM_ROCI BOM_POCI BOM_EYE BOM_POS_METHOD BOM_PRES_METHOD NADI_LAT NADI_LON NADI_CAT NADI_WIND NADI_PRES WELLINGTON_LAT WELLINGTON_LON WELLINGTON_WIND WELLINGTON_PRES DS824_LAT DS824_LON DS824_STAGE DS824_WIND DS824_PRES TD9636_LAT TD9636_LON TD9636_STAGE TD9636_WIND TD9636_PRES TD9635_LAT TD9635_LON TD9635_WIND TD9635_PRES TD9635_ROCI NEUMANN_LAT NEUMANN_LON NEUMANN_CLASS NEUMANN_WIND NEUMANN_PRES MLC_LAT MLC_LON MLC_CLASS MLC_WIND MLC_PRES USA_GUST BOM_GUST BOM_GUST_PER REUNION_GUST REUNION_GUST_PER USA_SEAHGT USA_SEARAD_NE USA_SEARAD_SE USA_SEARAD_SW USA_SEARAD_NW STORM_SPEED STORM_DIR
1944008N07147 1944 2 WP MM NOT_NAMED 1944-01-07 12:00:00 NR 6.80000 147.000 main 997 975 __________O___ -1 6.80000 147.000 2 16 256
1944008N07147 1944 2 WP MM NOT_NAMED 1944-01-07 15:00:00 NR 6.60749 146.218 main 975 960 __________P___ -1 6.60749 146.218 2 16 256
1944008N07147 1944 2 WP MM NOT_NAMED 1944-01-07 18:00:00 NR 6.42137 145.469 main 960 954 __________P___ -1 6.42137 145.469 2 15 256
1944008N07147 1944 2 WP MM NOT_NAMED 1944-01-07 21:00:00 NR 6.24953 144.786 main 951 950 __________P___ -1 6.24953 144.786 2 13 256
1944008N07147 1944 2 WP MM NOT_NAMED 1944-01-08 00:00:00 NR 6.10000 144.200 main 956 952 __________O___ -1 6.10000 144.200 2 11 256
1944008N07147 1944 2 WP MM NOT_NAMED 1944-01-08 03:00:00 NR 5.97949 143.732 main 963 956 __________P___ -1 5.97949 143.732 2 9 256
1944008N07147 1944 2 WP MM NOT_NAMED 1944-01-08 06:00:00 NR 5.88939 143.353 main 964 961 __________P___ -1 5.88939 143.353 2 7 258
1944008N07147 1944 2 WP MM NOT_NAMED 1944-01-08 09:00:00 NR 5.82962 143.022 main 961 953 __________P___ -1 5.82962 143.022 2 7 262
1944008N07147 1944 2 WP MM NOT_NAMED 1944-01-08 12:00:00 NR 5.80000 142.700 main 953 945 __________O___ -1 5.80000 142.700 2 7 266
1944008N07147 1944 2 WP MM NOT_NAMED 1944-01-08 15:00:00 NR 5.77987 142.337 main 941 927 __________P___ -1 5.77987 142.337 2 7 269
1944008N07147 1944 2 WP MM NOT_NAMED 1944-01-08 18:00:00 NR 5.78981 141.972 main 927 910 __________P___ -1 5.78981 141.972 2 7 274
1944008N07147 1944 2 WP MM NOT_NAMED 1944-01-08 21:00:00 NR 5.82985 141.596 main 910 904 __________P___ -1 5.82985 141.596 2 8 278
1944008N07147 1944 2 WP MM NOT_NAMED 1944-01-09 00:00:00 NR 5.90000 141.200 main 904 896 __________O___ -1 5.90000 141.200 2 8 281
1944008N07147 1944 2 WP MM NOT_NAMED 1944-01-09 03:00:00 NR 5.98814 140.763 main 899 889 __________P___ -1 5.98814 140.763 2 9 283
1944008N07147 1944 2 WP MM NOT_NAMED 1944-01-09 06:00:00 NR 6.10503 140.307 main 893 891 __________P___ -1 6.10503 140.307 2 9 286
1944008N07147 1944 2 WP MM NOT_NAMED 1944-01-09 09:00:00 NR 6.24439 139.848 main 891 890 __________P___ -1 6.24439 139.848 2 10 288
1944008N07147 1944 2 WP MM NOT_NAMED 1944-01-09 12:00:00 NR 6.40000 139.400 main 895 887 __________O___ -1 6.40000 139.400 2 9 289
1944008N07147 1944 2 WP MM NOT_NAMED 1944-01-09 15:00:00 NR 6.54012 138.994 main 887 885 __________P___ -1 6.54012 138.994 2 9 291
1944008N07147 1944 2 WP MM NOT_NAMED 1944-01-09 18:00:00 NR 6.69723 138.600 main 892 888 __________P___ -1 6.69723 138.600 2 9 294
1944008N07147 1944 2 WP MM NOT_NAMED 1944-01-09 21:00:00 NR 6.88073 138.206 main 899 895 __________P___ -1 6.88073 138.206 2 9 297
1944008N07147 1944 2 WP MM NOT_NAMED 1944-01-10 00:00:00 NR 7.10000 137.800 main 907 904 __________O___ -1 7.10000 137.800 2 10 300
1944008N07147 1944 2 WP MM NOT_NAMED 1944-01-10 03:00:00 NR 7.36395 137.372 main 929 927 __________P___ -1 7.36395 137.372 2 10 303
1944008N07147 1944 2 WP MM NOT_NAMED 1944-01-10 06:00:00 NR 7.66232 136.930 main 952 950 __________P___ -1 7.66232 136.930 2 11 305
1944008N07147 1944 2 WP MM NOT_NAMED 1944-01-10 09:00:00 NR 7.97953 136.472 main 980 978 __________P___ -1 7.97953 136.472 2 11 305
1944008N07147 1944 2 WP MM NOT_NAMED 1944-01-10 12:00:00 NR 8.30000 136.000 main 1009 985 __________O___ -1 8.30000 136.000 2 12 304
1944008N07147 1944 2 WP MM NOT_NAMED 1944-01-10 15:00:00 NR 8.64477 135.490 main 985 934 __________P___ -1 8.64477 135.490 2 12 304
1944008N07147 1944 2 WP MM NOT_NAMED 1944-01-10 18:00:00 NR 8.98266 134.971 main 936 885 __________P___ -1 8.98266 134.971 2 12 302
1944008N07147 1944 2 WP MM NOT_NAMED 1944-01-10 21:00:00 NR 9.27918 134.465 main 887 838 __________P___ -1 9.27918 134.465 2 11 298
1944008N07147 1944 2 WP MM NOT_NAMED 1944-01-11 00:00:00 NR 9.50000 134.000 main 838 799 __________O___ -1 9.50000 134.000 2 9 292
1944008N07147 1944 2 WP MM NOT_NAMED 1944-01-11 03:00:00 NR 9.63629 133.590 main 799 759 __________P___ -1 9.63629 133.590 2 8 284
1944008N07147 1944 2 WP MM NOT_NAMED 1944-01-11 06:00:00 NR 9.69219 133.225 main 759 728 __________P___ -1 9.69219 133.225 2 7 273
1944008N07147 1944 2 WP MM NOT_NAMED 1944-01-11 09:00:00 NR 9.67700 132.897 main 728 693 __________P___ -1 9.67700 132.897 2 6 261
1944008N07147 1944 2 WP MM NOT_NAMED 1944-01-11 12:00:00 NR 9.60000 132.600 main 693 658 __________O___ -1 9.60000 132.600 2 6 252
1944008N07147 1944 2 WP MM NOT_NAMED 1944-01-11 15:00:00 NR 9.48641 132.317 main 658 631 __________P___ -1 9.48641 132.317 2 6 242
1944008N07147 1944 2 WP MM NOT_NAMED 1944-01-11 18:00:00 NR 9.31731 132.062 main 631 593 __________P___ -1 9.31731 132.062 2 6 232
1944008N07147 1944 2 WP MM NOT_NAMED 1944-01-11 21:00:00 NR 9.11457 131.827 main 593 566 __________P___ -1 9.11457 131.827 2 6 228
1944008N07147 1944 2 WP MM NOT_NAMED 1944-01-12 00:00:00 NR 8.90000 131.600 main 566 540 __________O___ -1 8.90000 131.600 2 6 228
1944008N07147 1944 2 WP MM NOT_NAMED 1944-01-12 03:00:00 NR 8.70306 131.368 main 540 514 __________P___ -1 8.70306 131.368 2 6 229
1944008N07147 1944 2 WP MM NOT_NAMED 1944-01-12 06:00:00 NR 8.49992 131.143 main 503 478 __________P___ -1 8.49992 131.143 2 6 227
1944008N07147 1944 2 WP MM NOT_NAMED 1944-01-12 09:00:00 NR 8.29682 130.921 main 478 454 __________P___ -1 8.29682 130.921 2 6 228
1944008N07147 1944 2 WP MM NOT_NAMED 1944-01-12 12:00:00 NR 8.10000 130.700 main 454 430 __________O___ -1 8.10000 130.700 2 6 229
1944008N07147 1944 2 WP MM NOT_NAMED 1944-01-12 15:00:00 NR 7.91370 130.479 main 430 408 __________P___ -1 7.91370 130.479 2 6 230
1944008N07147 1944 2 WP MM NOT_NAMED 1944-01-12 18:00:00 NR 7.73493 130.258 main 408 375 __________P___ -1 7.73493 130.258 2 6 232
1944008N07147 1944 2 WP MM NOT_NAMED 1944-01-12 21:00:00 NR 7.56370 130.032 main 375 353 __________P___ -1 7.56370 130.032 2 6 234
1944008N07147 1944 2 WP MM NOT_NAMED 1944-01-13 00:00:00 NR 7.40000 129.800 main 353 331 __________O___ -1 7.40000 129.800 2 6 235
1944008N07147 1944 2 WP MM NOT_NAMED 1944-01-13 03:00:00 NR 7.24678 129.574 main 331 309 __________P___ -1 7.24678 129.574 2 6 237
1944008N07147 1944 2 WP MM NOT_NAMED 1944-01-13 06:00:00 NR 7.09986 129.338 main 298 278 __________P___ -1 7.09986 129.338 2 6 239
1944008N07147 1944 2 WP MM NOT_NAMED 1944-01-13 09:00:00 NR 6.95301 129.083 main 278 249 __________P___ -1 6.95301 129.083 2 6 241
1944008N07147 1944 2 WP MM NOT_NAMED 1944-01-13 12:00:00 NR 6.80000 128.800 main 249 224 __________O___ -1 6.80000 128.800 2 7 239
1944008N07147 1944 2 WP MM NOT_NAMED 1944-01-13 15:00:00 NR 6.59966 128.487 main 224 196 __________P___ -1 6.59966 128.487 2 8 238
1944008N07147 1944 2 WP MM NOT_NAMED 1944-01-13 18:00:00 NR 6.39745 128.145 main 189 168 __________P___ -1 6.39745 128.145 2 8 242
1944008N07147 1944 2 WP MM NOT_NAMED 1944-01-13 21:00:00 NR 6.22151 127.780 main 168 134 __________P___ -1 6.22151 127.780 2 8 248
1944008N07147 1944 2 WP MM NOT_NAMED 1944-01-14 00:00:00 NR 6.10000 127.400 main 134 94 __________O___ -1 6.10000 127.400 2 8 257
1944008N07147 1944 2 WP MM NOT_NAMED 1944-01-14 03:00:00 NR 6.04715 127.014 main 94 49 __________P___ -1 6.04715 127.014 2 8 267
1944008N07147 1944 2 WP MM NOT_NAMED 1944-01-14 06:00:00 NR 6.05245 126.615 main 49 22 __________P___ -1 6.05245 126.615 2 8 274
1944008N07147 1944 2 WP MM NOT_NAMED 1944-01-14 09:00:00 NR 6.10652 126.208 main 22 11 __________P___ -1 6.10652 126.208 2 8 280
1944008N07147 1944 2 WP MM NOT_NAMED 1944-01-14 12:00:00 NR 6.20000 125.800 main 11 0 __________O___ -1 6.20000 125.800 2 8 284
1944008N07147 1944 2 WP MM NOT_NAMED 1944-01-14 15:00:00 NR 6.30174 125.408 main 0 0 __________P___ -1 6.30174 125.408 2 8 287
1944008N07147 1944 2 WP MM NOT_NAMED 1944-01-14 18:00:00 NR 6.43981 125.015 main 0 0 __________P___ -1 6.43981 125.015 2 8 291
1944008N07147 1944 2 WP MM NOT_NAMED 1944-01-14 21:00:00 NR 6.60797 124.614 main 0 0 __________P___ -1 6.60797 124.614 2 9 294
1944008N07147 1944 2 WP MM NOT_NAMED 1944-01-15 00:00:00 NR 6.80000 124.200 main 0 0 __________O___ -1 6.80000 124.200 2 9 297
1944008N07147 1944 2 WP MM NOT_NAMED 1944-01-15 03:00:00 NR 7.01521 123.809 main 24 22 __________P___ -1 7.01521 123.809 2 9 299
1944008N07147 1944 2 WP MM NOT_NAMED 1944-01-15 06:00:00 NR 7.24932 123.397 main 22 0 __________P___ -1 7.24931 123.397 2 10 298
1944008N07147 1944 2 WP MM NOT_NAMED 1944-01-15 09:00:00 NR 7.48379 122.937 main 0 0 __________P___ -1 7.48379 122.937 2 11 294
1944008N07147 1944 2 WP MM NOT_NAMED 1944-01-15 12:00:00 NR 7.70000 122.400 main 0 0 __________O___ -1 7.70000 122.400 2 13 289
1944008N07147 1944 2 WP MM NOT_NAMED 1944-01-15 15:00:00 NR 7.91714 121.686 main 49 49 __________P___ -1 7.91714 121.686 2 15 285
1944008N07147 1944 2 WP MM NOT_NAMED 1944-01-15 18:00:00 NR 8.10633 120.906 main 139 139 __________P___ -1 8.10633 120.906 2 16 282
1944008N07147 1944 2 WP MM NOT_NAMED 1944-01-15 21:00:00 NR 8.24219 120.148 main 219 164 __________P___ -1 8.24219 120.148 2 14 278
1944008N07147 1944 2 WP MM NOT_NAMED 1944-01-16 00:00:00 NR 8.30000 119.500 main 164 133 __________O___ -1 8.30000 119.500 2 10 271
1944008N07147 1944 2 WP MM NOT_NAMED 1944-01-16 03:00:00 NR 8.25317 119.094 main 133 117 __________P___ -1 8.25317 119.094 2 7 256
1944008N07147 1944 2 WP MM NOT_NAMED 1944-01-16 06:00:00 NR 8.13142 118.802 main 125 118 __________P___ -1 8.13142 118.802 2 6 242
1944008N07147 1944 2 WP MM NOT_NAMED 1944-01-16 09:00:00 NR 7.96901 118.560 main 120 114 __________P___ -1 7.96901 118.560 2 6 236
1944008N07147 1944 2 WP MM NOT_NAMED 1944-01-16 12:00:00 NR 7.80000 118.300 main 117 105 __________O___ -1 7.80000 118.300 2 7 241
1944008N07147 1944 2 WP MM NOT_NAMED 1944-01-16 15:00:00 NR 7.65150 117.972 main 105 74 __________P___ -1 7.65150 117.972 2 8 249
1944008N07147 1944 2 WP MM NOT_NAMED 1944-01-16 18:00:00 NR 7.52331 117.582 main 74 56 __________P___ -1 7.52331 117.582 2 9 253
1944008N07147 1944 2 WP MM NOT_NAMED 1944-01-16 21:00:00 NR 7.40845 117.151 main 56 44 __________P___ -1 7.40845 117.151 2 9 256
1944008N07147 1944 2 WP MM NOT_NAMED 1944-01-17 00:00:00 NR 7.30000 116.700 main 44 __________O___ -1 7.30000 116.700 2 9 256

Digital Typhoon Data and Search

About IBTrACS Database

This database is a web-friendly format of International Best Track Archive for Climate Stewardship (IBTrACS), a global best track data archive curated by NOAA dating back to 1842.

Updated: 2021-10-25